Time,TemperatureF,DewpointF,PressureIn,WindDirection,WindDirectionDegrees,WindSpeedMPH,WindSpeedGustMPH,Humidity,HourlyPrecipIn,Conditions,Clouds,dailyrainin,SoftwareType,DateUTC
2013-01-02 00:00:00,30.1,26.4,30.15,NNW,345,1.0,6.0,86,0.00,,,0.00,VWS V14.01,2013-01-02 05:00:00,
2013-01-02 00:03:00,30.1,26.4,30.15,North,349,0.0,6.0,86,0.00,,,0.00,VWS V14.01,2013-01-02 05:03:00,
2013-01-02 00:08:00,30.1,26.4,30.15,NW,309,1.0,6.0,86,0.00,,,0.00,VWS V14.01,2013-01-02 05:08:00,
2013-01-02 00:10:00,30.1,26.4,30.15,NNW,334,3.0,6.0,86,0.00,,,0.00,VWS V14.01,2013-01-02 05:10:00,
2013-01-02 00:13:00,30.1,26.1,30.15,NNW,344,7.0,7.0,85,0.00,,,0.00,VWS V14.01,2013-01-02 05:13:00,
2013-01-02 00:18:00,30.1,25.9,30.17,NNW,336,3.0,6.0,84,0.00,,,0.00,VWS V14.01,2013-01-02 05:18:00,
2013-01-02 00:20:00,30.1,25.9,30.17,NNW,336,0.0,6.0,84,0.00,,,0.00,VWS V14.01,2013-01-02 05:20:00,
2013-01-02 00:23:00,30.1,25.9,30.17,WNW,302,2.0,6.0,84,0.00,,,0.00,VWS V14.01,2013-01-02 05:23:00,
2013-01-02 00:28:00,30.1,25.6,30.17,NNW,336,0.0,6.0,83,0.00,,,0.00,VWS V14.01,2013-01-02 05:28:00,
2013-01-02 00:30:00,30.1,25.6,30.17,NW,319,5.0,6.0,83,0.00,,,0.00,VWS V14.01,2013-01-02 05:30:00,
2013-01-02 00:33:00,30.1,25.6,30.17,NW,321,0.0,6.0,83,0.00,,,0.00,VWS V14.01,2013-01-02 05:33:00,
2013-01-02 00:38:00,30.1,25.6,30.17,NNW,327,2.0,6.0,83,0.00,,,0.00,VWS V14.01,2013-01-02 05:38:00,
2013-01-02 00:40:00,30.1,25.6,30.17,NNW,333,2.0,6.0,83,0.00,,,0.00,VWS V14.01,2013-01-02 05:40:00,
2013-01-02 00:43:00,30.0,25.5,30.17,North,355,6.0,6.0,83,0.00,,,0.00,VWS V14.01,2013-01-02 05:43:00,
2013-01-02 00:48:00,30.0,25.5,30.16,NNE,15,0.0,6.0,83,0.00,,,0.00,VWS V14.01,2013-01-02 05:48:00,
2013-01-02 00:50:00,30.0,25.2,30.16,NNW,338,4.0,6.0,82,0.00,,,0.00,VWS V14.01,2013-01-02 05:50:00,
2013-01-02 00:53:00,30.0,25.2,30.16,NW,318,2.0,6.0,82,0.00,,,0.00,VWS V14.01,2013-01-02 05:53:00,
2013-01-02 00:58:00,29.8,24.7,30.16,NW,317,0.0,6.0,81,0.00,,,0.00,VWS V14.01,2013-01-02 05:58:00,
2013-01-02 01:00:00,29.8,24.7,30.17,NW,317,5.0,6.0,81,0.00,,,0.00,VWS V14.01,2013-01-02 06:00:00,
2013-01-02 01:03:00,29.7,24.3,30.17,NW,314,0.0,6.0,80,0.00,,,0.00,VWS V14.01,2013-01-02 06:03:00,
2013-01-02 01:08:00,29.7,24.0,30.17,North,5,2.0,6.0,79,0.00,,,0.00,VWS V14.01,2013-01-02 06:08:00,
2013-01-02 01:10:00,29.7,24.0,30.17,NNW,342,1.0,6.0,79,0.00,,,0.00,VWS V14.01,2013-01-02 06:10:00,
2013-01-02 01:13:00,29.7,24.3,30.17,NNW,345,0.0,6.0,80,0.00,,,0.00,VWS V14.01,2013-01-02 06:13:00,
2013-01-02 01:18:00,29.7,24.0,30.17,NW,310,0.0,6.0,79,0.00,,,0.00,VWS V14.01,2013-01-02 06:18:00,
2013-01-02 01:20:00,29.7,24.0,30.17,NW,313,0.0,6.0,79,0.00,,,0.00,VWS V14.01,2013-01-02 06:20:00,
2013-01-02 01:23:00,29.7,24.0,30.17,North,360,2.0,6.0,79,0.00,,,0.00,VWS V14.01,2013-01-02 06:23:00,
2013-01-02 01:28:00,29.7,24.0,30.17,NNW,328,2.0,6.0,79,0.00,,,0.00,VWS V14.01,2013-01-02 06:28:00,
2013-01-02 01:30:00,29.7,24.0,30.17,NNW,341,3.0,6.0,79,0.00,,,0.00,VWS V14.01,2013-01-02 06:30:00,
2013-01-02 01:33:00,29.8,24.1,30.17,NW,308,2.0,6.0,79,0.00,,,0.00,VWS V14.01,2013-01-02 06:33:00,
2013-01-02 01:38:00,29.7,24.0,30.17,WNW,296,2.0,6.0,79,0.00,,,0.00,VWS V14.01,2013-01-02 06:38:00,
2013-01-02 01:40:00,29.7,24.0,30.17,NNW,333,3.0,6.0,79,0.00,,,0.00,VWS V14.01,2013-01-02 06:40:00,
2013-01-02 01:43:00,29.7,23.7,30.17,North,355,4.0,6.0,78,0.00,,,0.00,VWS V14.01,2013-01-02 06:43:00,
2013-01-02 01:48:00,29.5,23.8,30.18,NW,313,3.0,6.0,79,0.00,,,0.00,VWS V14.01,2013-01-02 06:48:00,
2013-01-02 01:50:00,29.5,23.5,30.18,NNW,331,0.0,6.0,78,0.00,,,0.00,VWS V14.01,2013-01-02 06:50:00,
2013-01-02 01:53:00,29.5,23.8,30.18,NNW,334,2.0,6.0,79,0.00,,,0.00,VWS V14.01,2013-01-02 06:53:00,
2013-01-02 01:58:00,29.5,23.8,30.18,NW,313,2.0,6.0,79,0.00,,,0.00,VWS V14.01,2013-01-02 06:58:00,
2013-01-02 02:00:00,29.5,23.8,30.18,NNW,346,2.0,6.0,79,0.00,,,0.00,VWS V14.01,2013-01-02 07:00:00,
2013-01-02 02:03:00,29.5,23.8,30.18,NNW,345,2.0,6.0,79,0.00,,,0.00,VWS V14.01,2013-01-02 07:03:00,
2013-01-02 02:08:00,29.5,24.1,30.18,NW,315,0.0,6.0,80,0.00,,,0.00,VWS V14.01,2013-01-02 07:08:00,
2013-01-02 02:13:00,29.5,24.1,30.18,NW,311,0.0,6.0,80,0.00,,,0.00,VWS V14.01,2013-01-02 07:13:00,
2013-01-02 02:20:00,29.4,24.0,30.19,NNW,342,0.0,6.0,80,0.00,,,0.00,VWS V14.01,2013-01-02 07:20:00,
2013-01-02 02:23:00,29.4,24.0,30.19,NNE,27,0.0,6.0,80,0.00,,,0.00,VWS V14.01,2013-01-02 07:23:00,
2013-01-02 02:38:00,29.3,23.9,30.19,WNW,301,0.0,6.0,80,0.00,,,0.00,VWS V14.01,2013-01-02 07:38:00,
2013-01-02 02:44:00,29.1,23.4,30.19,North,360,4.0,6.0,79,0.00,,,0.00,VWS V14.01,2013-01-02 07:44:00,
2013-01-02 02:50:00,29.1,23.4,30.19,NNW,344,2.0,6.0,79,0.00,,,0.00,VWS V14.01,2013-01-02 07:50:00,
2013-01-02 03:00:00,29.0,23.3,30.20,NNW,342,3.0,6.0,79,0.00,,,0.00,VWS V14.01,2013-01-02 08:00:00,
2013-01-02 03:04:00,29.0,23.6,30.20,NW,325,2.0,6.0,80,0.00,,,0.00,VWS V14.01,2013-01-02 08:04:00,
2013-01-02 03:09:00,29.0,23.6,30.20,WNW,299,1.0,6.0,80,0.00,,,0.00,VWS V14.01,2013-01-02 08:09:00,
2013-01-02 03:10:00,29.0,23.6,30.20,WNW,298,0.0,6.0,80,0.00,,,0.00,VWS V14.01,2013-01-02 08:10:00,
2013-01-02 03:14:00,29.5,24.1,30.18,NW,318,0.0,6.0,80,0.00,,,0.00,VWS V14.01,2013-01-02 08:14:00,
2013-01-02 03:20:00,28.7,23.0,30.20,NW,325,4.0,6.0,79,0.00,,,0.00,VWS V14.01,2013-01-02 08:20:00,
2013-01-02 03:23:00,29.4,24.0,30.19,North,5,3.0,6.0,80,0.00,,,0.00,VWS V14.01,2013-01-02 08:23:00,
2013-01-02 03:29:00,28.5,22.8,30.20,North,5,3.0,6.0,79,0.00,,,0.00,VWS V14.01,2013-01-02 08:29:00,
2013-01-02 03:30:00,28.5,22.8,30.20,North,11,2.0,6.0,79,0.00,,,0.00,VWS V14.01,2013-01-02 08:30:00,
2013-01-02 03:33:00,29.3,23.9,30.19,North,360,0.0,6.0,80,0.00,,,0.00,VWS V14.01,2013-01-02 08:33:00,
2013-01-02 03:34:00,28.5,22.8,30.20,NNW,345,3.0,6.0,79,0.00,,,0.00,VWS V14.01,2013-01-02 08:34:00,
2013-01-02 03:38:00,29.3,23.9,30.19,NNW,340,0.0,6.0,80,0.00,,,0.00,VWS V14.01,2013-01-02 08:38:00,
2013-01-02 03:40:00,28.5,22.8,30.20,NNW,340,3.0,6.0,79,0.00,,,0.00,VWS V14.01,2013-01-02 08:40:00,
2013-01-02 03:44:00,29.3,23.9,30.19,WNW,301,0.0,6.0,80,0.00,,,0.00,VWS V14.01,2013-01-02 08:44:00,
2013-01-02 03:58:00,29.1,23.4,30.19,North,349,0.0,6.0,79,0.00,,,0.00,VWS V14.01,2013-01-02 08:58:00,
2013-01-02 04:03:00,29.0,23.3,30.20,NNW,336,3.0,6.0,79,0.00,,,0.00,VWS V14.01,2013-01-02 09:03:00,
2013-01-02 04:23:00,28.7,23.0,30.20,NNW,348,3.0,6.0,79,0.00,,,0.00,VWS V14.01,2013-01-02 09:23:00,
2013-01-02 04:28:00,28.7,23.0,30.20,North,360,0.0,6.0,79,0.00,,,0.00,VWS V14.01,2013-01-02 09:28:00,
2013-01-02 04:43:00,28.5,22.8,30.20,NW,319,3.0,6.0,79,0.00,,,0.00,VWS V14.01,2013-01-02 09:43:00,
2013-01-02 04:49:00,26.9,21.6,30.22,NW,319,1.0,6.0,80,0.00,,,0.00,VWS V14.01,2013-01-02 09:49:00,
2013-01-02 04:54:00,28.5,22.8,30.20,North,5,0.0,6.0,79,0.00,,,0.00,VWS V14.01,2013-01-02 09:54:00,
2013-01-02 04:59:00,28.5,22.8,30.20,North,9,1.0,6.0,79,0.00,,,0.00,VWS V14.01,2013-01-02 09:59:00,
2013-01-02 05:00:00,26.6,21.3,30.21,NW,316,2.0,6.0,80,0.00,,,0.00,VWS V14.01,2013-01-02 10:00:00,
2013-01-02 05:04:00,28.4,22.7,30.21,NNW,333,6.0,6.0,79,0.00,,,0.00,VWS V14.01,2013-01-02 10:04:00,
2013-01-02 05:09:00,28.2,22.2,30.21,North,350,0.0,6.0,78,0.00,,,0.00,VWS V14.01,2013-01-02 10:09:00,
2013-01-02 05:14:00,28.1,22.1,30.21,NW,325,1.0,6.0,78,0.00,,,0.00,VWS V14.01,2013-01-02 10:14:00,
2013-01-02 05:19:00,27.9,21.9,30.21,NW,325,4.0,6.0,78,0.00,,,0.00,VWS V14.01,2013-01-02 10:19:00,
2013-01-02 05:24:00,27.9,21.6,30.21,NW,319,0.0,6.0,77,0.00,,,0.00,VWS V14.01,2013-01-02 10:24:00,
2013-01-02 05:29:00,27.8,21.9,30.21,NW,319,0.0,6.0,78,0.00,,,0.00,VWS V14.01,2013-01-02 10:29:00,
2013-01-02 05:34:00,27.6,21.6,30.20,NW,319,0.0,6.0,78,0.00,,,0.00,VWS V14.01,2013-01-02 10:34:00,
2013-01-02 05:39:00,27.5,21.9,30.20,NW,319,0.0,6.0,79,0.00,,,0.00,VWS V14.01,2013-01-02 10:39:00,
2013-01-02 05:44:00,27.3,21.7,30.20,NW,318,0.0,6.0,79,0.00,,,0.00,VWS V14.01,2013-01-02 10:44:00,
2013-01-02 05:49:00,27.2,21.9,30.22,NW,318,0.0,6.0,80,0.00,,,0.00,VWS V14.01,2013-01-02 10:49:00,
2013-01-02 05:54:00,26.9,21.6,30.22,NW,319,0.0,6.0,80,0.00,,,0.00,VWS V14.01,2013-01-02 10:54:00,
2013-01-02 06:04:00,26.6,21.3,30.21,NW,315,0.0,6.0,80,0.00,,,0.00,VWS V14.01,2013-01-02 11:04:00,
2013-01-02 06:09:00,26.4,21.1,30.21,NW,316,0.0,6.0,80,0.00,,,0.00,VWS V14.01,2013-01-02 11:09:00,
2013-01-02 06:14:00,26.3,21.0,30.21,NW,317,0.0,6.0,80,0.00,,,0.00,VWS V14.01,2013-01-02 11:14:00,
2013-01-02 06:19:00,26.1,20.8,30.22,NW,317,0.0,6.0,80,0.00,,,0.00,VWS V14.01,2013-01-02 11:19:00,
2013-01-02 06:24:00,26.1,20.8,30.22,NW,317,0.0,6.0,80,0.00,,,0.00,VWS V14.01,2013-01-02 11:24:00,
2013-01-02 06:29:00,26.0,20.7,30.22,NW,317,0.0,6.0,80,0.00,,,0.00,VWS V14.01,2013-01-02 11:29:00,
2013-01-02 06:34:00,25.8,20.5,30.22,NW,317,0.0,6.0,80,0.00,,,0.00,VWS V14.01,2013-01-02 11:34:00,
2013-01-02 06:39:00,25.8,20.5,30.22,NW,317,0.0,6.0,80,0.00,,,0.00,VWS V14.01,2013-01-02 11:39:00,
2013-01-02 06:44:00,25.7,20.4,30.22,NW,317,1.0,6.0,80,0.00,,,0.00,VWS V14.01,2013-01-02 11:44:00,
2013-01-02 06:54:00,25.6,20.3,30.23,NW,317,0.0,6.0,80,0.00,,,0.00,VWS V14.01,2013-01-02 11:54:00,
2013-01-02 07:04:00,25.4,20.4,30.23,NW,317,0.0,6.0,81,0.00,,,0.00,VWS V14.01,2013-01-02 12:04:00,
2013-01-02 07:09:00,25.4,20.4,30.23,NW,317,0.0,6.0,81,0.00,,,0.00,VWS V14.01,2013-01-02 12:09:00,
2013-01-02 07:14:00,25.3,20.3,30.23,NW,317,0.0,6.0,81,0.00,,,0.00,VWS V14.01,2013-01-02 12:14:00,
2013-01-02 07:24:00,25.0,20.3,30.23,NW,317,0.0,6.0,82,0.00,,,0.00,VWS V14.01,2013-01-02 12:24:00,
2013-01-02 07:29:00,25.0,20.3,30.23,NW,317,0.0,6.0,82,0.00,,,0.00,VWS V14.01,2013-01-02 12:29:00,
2013-01-02 07:34:00,25.0,20.3,30.25,NW,317,0.0,6.0,82,0.00,,,0.00,VWS V14.01,2013-01-02 12:34:00,
2013-01-02 07:39:00,25.0,20.6,30.25,NW,317,0.0,6.0,83,0.00,,,0.00,VWS V14.01,2013-01-02 12:39:00,
2013-01-02 07:44:00,24.8,20.4,30.25,NW,317,0.0,6.0,83,0.00,,,0.00,VWS V14.01,2013-01-02 12:44:00,
2013-01-02 07:49:00,24.8,20.4,30.25,NW,317,0.0,6.0,83,0.00,,,0.00,VWS V14.01,2013-01-02 12:49:00,
2013-01-02 07:54:00,24.7,20.3,30.25,NW,317,0.0,6.0,83,0.00,,,0.00,VWS V14.01,2013-01-02 12:54:00,
2013-01-02 07:59:00,24.5,20.1,30.25,NW,317,0.0,6.0,83,0.00,,,0.00,VWS V14.01,2013-01-02 12:59:00,
2013-01-02 08:04:00,24.5,20.1,30.25,NW,317,0.0,6.0,83,0.00,,,0.00,VWS V14.01,2013-01-02 13:04:00,
2013-01-02 08:09:00,24.5,20.1,30.25,NW,317,0.0,6.0,83,0.00,,,0.00,VWS V14.01,2013-01-02 13:09:00,
2013-01-02 08:14:00,24.5,20.1,30.25,NW,317,2.0,6.0,83,0.00,,,0.00,VWS V14.01,2013-01-02 13:14:00,
2013-01-02 08:19:00,24.5,20.1,30.25,NW,318,3.0,6.0,83,0.00,,,0.00,VWS V14.01,2013-01-02 13:19:00,
2013-01-02 08:24:00,24.5,19.8,30.25,NW,319,1.0,6.0,82,0.00,,,0.00,VWS V14.01,2013-01-02 13:24:00,
2013-01-02 08:29:00,24.5,19.8,30.25,NW,319,3.0,6.0,82,0.00,,,0.00,VWS V14.01,2013-01-02 13:29:00,
2013-01-02 08:34:00,24.5,19.8,30.24,North,355,3.0,6.0,82,0.00,,,0.00,VWS V14.01,2013-01-02 13:34:00,
2013-01-02 08:39:00,24.5,19.8,30.24,North,355,0.0,6.0,82,0.00,,,0.00,VWS V14.01,2013-01-02 13:39:00,
2013-01-02 08:44:00,24.7,20.0,30.24,North,355,0.0,6.0,82,0.00,,,0.00,VWS V14.01,2013-01-02 13:44:00,
2013-01-02 08:49:00,24.8,20.1,30.25,North,355,1.0,6.0,82,0.00,,,0.00,VWS V14.01,2013-01-02 13:49:00,
2013-01-02 08:54:00,24.8,20.1,30.25,North,355,0.0,6.0,82,0.00,,,0.00,VWS V14.01,2013-01-02 13:54:00,
2013-01-02 08:59:00,25.0,20.3,30.25,North,355,0.0,6.0,82,0.00,,,0.00,VWS V14.01,2013-01-02 13:59:00,
2013-01-02 09:04:00,25.1,20.4,30.25,North,355,0.0,6.0,82,0.00,,,0.00,VWS V14.01,2013-01-02 14:04:00,
2013-01-02 09:09:00,25.4,20.7,30.25,North,355,0.0,6.0,82,0.00,,,0.00,VWS V14.01,2013-01-02 14:09:00,
2013-01-02 09:14:00,25.4,20.4,30.25,North,355,2.0,6.0,81,0.00,,,0.00,VWS V14.01,2013-01-02 14:14:00,
2013-01-02 09:19:00,25.6,20.6,30.26,North,355,0.0,6.0,81,0.00,,,0.00,VWS V14.01,2013-01-02 14:19:00,
2013-01-02 09:24:00,25.7,20.7,30.26,North,355,0.0,6.0,81,0.00,,,0.00,VWS V14.01,2013-01-02 14:24:00,
2013-01-02 09:29:00,25.6,20.3,30.26,North,355,0.0,6.0,80,0.00,,,0.00,VWS V14.01,2013-01-02 14:29:00,
2013-01-02 09:34:00,25.6,20.6,30.27,North,355,0.0,6.0,81,0.00,,,0.00,VWS V14.01,2013-01-02 14:34:00,
2013-01-02 09:39:00,25.7,20.7,30.27,North,355,0.0,6.0,81,0.00,,,0.00,VWS V14.01,2013-01-02 14:39:00,
2013-01-02 09:44:00,26.0,21.0,30.27,North,355,0.0,6.0,81,0.00,,,0.00,VWS V14.01,2013-01-02 14:44:00,
2013-01-02 09:49:00,26.3,21.0,30.27,North,355,0.0,6.0,80,0.00,,,0.00,VWS V14.01,2013-01-02 14:49:00,
2013-01-02 09:54:00,26.4,20.8,30.27,North,355,0.0,6.0,79,0.00,,,0.00,VWS V14.01,2013-01-02 14:54:00,
2013-01-02 09:59:00,26.6,21.0,30.27,North,355,0.0,6.0,79,0.00,,,0.00,VWS V14.01,2013-01-02 14:59:00,
2013-01-02 10:04:00,26.7,20.8,30.27,North,355,1.0,6.0,78,0.00,,,0.00,VWS V14.01,2013-01-02 15:04:00,
2013-01-02 10:09:00,26.9,20.7,30.27,North,355,0.0,6.0,77,0.00,,,0.00,VWS V14.01,2013-01-02 15:09:00,
2013-01-02 10:14:00,27.2,21.0,30.27,North,355,0.0,6.0,77,0.00,,,0.00,VWS V14.01,2013-01-02 15:14:00,
2013-01-02 10:19:00,27.5,21.2,30.27,North,355,0.0,6.0,77,0.00,,,0.00,VWS V14.01,2013-01-02 15:19:00,
2013-01-02 10:24:00,27.9,21.3,30.27,North,355,0.0,6.0,76,0.00,,,0.00,VWS V14.01,2013-01-02 15:24:00,
2013-01-02 10:29:00,28.4,21.2,30.27,ENE,71,0.0,6.0,74,0.00,,,0.00,VWS V14.01,2013-01-02 15:29:00,
2013-01-02 10:34:00,28.8,21.2,30.28,ENE,71,0.0,6.0,73,0.00,,,0.00,VWS V14.01,2013-01-02 15:34:00,
2013-01-02 10:39:00,29.3,21.4,30.28,ENE,69,0.0,6.0,72,0.00,,,0.00,VWS V14.01,2013-01-02 15:39:00,
2013-01-02 10:44:00,29.3,21.1,30.28,ENE,63,1.0,6.0,71,0.00,,,0.00,VWS V14.01,2013-01-02 15:44:00,
2013-01-02 10:50:00,29.4,21.5,30.29,NE,44,0.0,6.0,72,0.00,,,0.00,VWS V14.01,2013-01-02 15:50:00,
2013-01-02 10:55:00,30.0,21.4,30.29,NE,49,0.0,6.0,70,0.00,,,0.00,VWS V14.01,2013-01-02 15:55:00,
2013-01-02 11:00:00,30.0,21.1,30.29,NE,49,1.0,6.0,69,0.00,,,0.00,VWS V14.01,2013-01-02 16:00:00,
2013-01-02 11:05:00,30.1,21.2,30.29,NE,49,0.0,6.0,69,0.00,,,0.00,VWS V14.01,2013-01-02 16:05:00,
2013-01-02 11:10:00,30.1,20.8,30.29,NE,49,0.0,6.0,68,0.00,,,0.00,VWS V14.01,2013-01-02 16:10:00,
2013-01-02 11:15:00,30.6,21.6,30.29,West,278,0.0,6.0,69,0.00,,,0.00,VWS V14.01,2013-01-02 16:15:00,
2013-01-02 11:20:00,30.9,21.2,30.28,WNW,292,0.0,6.0,67,0.00,,,0.00,VWS V14.01,2013-01-02 16:20:00,
2013-01-02 11:25:00,30.4,20.8,30.28,West,279,0.0,6.0,67,0.00,,,0.00,VWS V14.01,2013-01-02 16:25:00,
2013-01-02 11:30:00,30.0,20.7,30.28,NW,306,0.0,6.0,68,0.00,,,0.00,VWS V14.01,2013-01-02 16:30:00,
2013-01-02 11:35:00,29.7,20.5,30.28,WNW,296,0.0,6.0,68,0.00,,,0.00,VWS V14.01,2013-01-02 16:35:00,
2013-01-02 11:40:00,30.0,20.7,30.28,NNW,331,2.0,6.0,68,0.00,,,0.00,VWS V14.01,2013-01-02 16:40:00,
2013-01-02 11:45:00,30.6,21.3,30.28,NNW,331,0.0,6.0,68,0.00,,,0.00,VWS V14.01,2013-01-02 16:45:00,
2013-01-02 11:50:00,31.0,21.0,30.29,NNW,331,0.0,6.0,66,0.00,,,0.00,VWS V14.01,2013-01-02 16:50:00,
2013-01-02 11:55:00,30.6,20.2,30.29,WNW,293,0.0,6.0,65,0.00,,,0.00,VWS V14.01,2013-01-02 16:55:00,
2013-01-02 12:00:00,30.3,20.0,30.29,WNW,282,3.0,6.0,65,0.00,,,0.00,VWS V14.01,2013-01-02 17:00:00,
2013-01-02 12:05:00,29.8,20.2,30.28,WNW,283,1.0,6.0,67,0.00,,,0.00,VWS V14.01,2013-01-02 17:05:00,
2013-01-02 12:10:00,29.7,19.8,30.28,North,351,0.0,6.0,66,0.00,,,0.00,VWS V14.01,2013-01-02 17:10:00,
2013-01-02 12:15:00,30.1,20.8,30.28,WSW,239,0.0,6.0,68,0.00,,,0.00,VWS V14.01,2013-01-02 17:15:00,
2013-01-02 12:20:00,31.2,21.9,30.27,West,267,0.0,6.0,68,0.00,,,0.00,VWS V14.01,2013-01-02 17:20:00,
2013-01-02 12:25:00,31.2,20.8,30.27,NNW,327,0.0,6.0,65,0.00,,,0.00,VWS V14.01,2013-01-02 17:25:00,
2013-01-02 12:30:00,30.7,20.3,30.27,WNW,286,2.0,6.0,65,0.00,,,0.00,VWS V14.01,2013-01-02 17:30:00,
2013-01-02 12:35:00,30.9,20.5,30.26,West,279,0.0,6.0,65,0.00,,,0.00,VWS V14.01,2013-01-02 17:35:00,
2013-01-02 12:40:00,31.6,22.3,30.26,NW,322,0.0,6.0,68,0.00,,,0.00,VWS V14.01,2013-01-02 17:40:00,
2013-01-02 12:45:00,32.1,21.3,30.26,NE,36,2.0,6.0,64,0.00,,,0.00,VWS V14.01,2013-01-02 17:45:00,
2013-01-02 12:50:00,31.8,20.7,30.26,WNW,303,0.0,6.0,63,0.01,,,0.01,VWS V14.01,2013-01-02 17:50:00,
2013-01-02 12:55:00,31.3,20.2,30.26,NNW,342,1.0,6.0,63,0.01,,,0.01,VWS V14.01,2013-01-02 17:55:00,
2013-01-02 13:00:00,31.3,19.8,30.26,North,350,0.0,6.0,62,0.01,,,0.01,VWS V14.01,2013-01-02 18:00:00,
2013-01-02 13:05:00,31.3,20.2,30.26,WNW,297,2.0,6.0,63,0.01,,,0.01,VWS V14.01,2013-01-02 18:05:00,
2013-01-02 13:10:00,31.0,19.9,30.26,West,271,2.0,6.0,63,0.01,,,0.01,VWS V14.01,2013-01-02 18:10:00,
2013-01-02 13:15:00,31.6,20.8,30.26,West,279,0.0,6.0,64,0.01,,,0.01,VWS V14.01,2013-01-02 18:15:00,
2013-01-02 13:20:00,32.4,21.6,30.25,WNW,297,2.0,6.0,64,0.01,,,0.01,VWS V14.01,2013-01-02 18:20:00,
2013-01-02 13:25:00,32.4,20.9,30.25,NNW,328,2.0,6.0,62,0.01,,,0.01,VWS V14.01,2013-01-02 18:25:00,
2013-01-02 13:30:00,32.1,21.3,30.25,North,355,0.0,6.0,64,0.01,,,0.01,VWS V14.01,2013-01-02 18:30:00,
2013-01-02 13:35:00,32.5,21.3,30.25,East,90,2.0,6.0,63,0.01,,,0.01,VWS V14.01,2013-01-02 18:35:00,
2013-01-02 13:40:00,32.2,20.7,30.25,NW,319,0.0,6.0,62,0.01,,,0.01,VWS V14.01,2013-01-02 18:40:00,
2013-01-02 13:45:00,32.1,20.6,30.25,WNW,286,1.0,6.0,62,0.01,,,0.01,VWS V14.01,2013-01-02 18:45:00,
2013-01-02 13:50:00,31.9,20.0,30.25,North,355,1.0,6.0,61,0.01,,,0.01,VWS V14.01,2013-01-02 18:50:00,
2013-01-02 13:55:00,32.1,19.8,30.25,WNW,286,0.0,6.0,60,0.00,,,0.01,VWS V14.01,2013-01-02 18:55:00,
2013-01-02 14:00:00,32.5,20.6,30.25,NW,306,1.0,6.0,61,0.00,,,0.01,VWS V14.01,2013-01-02 19:00:00,
2013-01-02 14:05:00,32.2,20.3,30.24,West,264,1.0,6.0,61,0.00,,,0.01,VWS V14.01,2013-01-02 19:05:00,
2013-01-02 14:10:00,32.2,20.3,30.24,NW,310,2.0,6.0,61,0.00,,,0.01,VWS V14.01,2013-01-02 19:10:00,
2013-01-02 14:15:00,32.8,21.2,30.24,SW,220,0.0,6.0,62,0.00,,,0.01,VWS V14.01,2013-01-02 19:15:00,
2013-01-02 14:20:00,32.9,20.9,30.24,West,281,0.0,6.0,61,0.00,,,0.01,VWS V14.01,2013-01-02 19:20:00,
2013-01-02 14:25:00,33.1,21.1,30.24,North,355,3.0,6.0,61,0.00,,,0.01,VWS V14.01,2013-01-02 19:25:00,
2013-01-02 14:30:00,32.7,20.4,30.24,NW,319,0.0,6.0,60,0.00,,,0.01,VWS V14.01,2013-01-02 19:30:00,
2013-01-02 14:35:00,33.4,21.4,30.23,WNW,297,4.0,6.0,61,0.00,,,0.01,VWS V14.01,2013-01-02 19:35:00,
2013-01-02 14:40:00,32.8,20.9,30.23,West,279,0.0,6.0,61,0.00,,,0.01,VWS V14.01,2013-01-02 19:40:00,
2013-01-02 14:45:00,33.1,21.5,30.23,NNW,345,3.0,6.0,62,0.00,,,0.01,VWS V14.01,2013-01-02 19:45:00,
2013-01-02 14:50:00,32.8,20.1,30.23,North,351,1.0,6.0,59,0.00,,,0.01,VWS V14.01,2013-01-02 19:50:00,
2013-01-02 14:55:00,32.7,20.4,30.23,WSW,242,0.0,6.0,60,0.00,,,0.01,VWS V14.01,2013-01-02 19:55:00,
2013-01-02 15:00:00,32.7,20.0,30.23,NW,319,0.0,6.0,59,0.00,,,0.01,VWS V14.01,2013-01-02 20:00:00,
2013-01-02 15:05:00,32.9,20.2,30.24,NE,51,0.0,6.0,59,0.00,,,0.01,VWS V14.01,2013-01-02 20:05:00,
2013-01-02 15:10:00,32.9,19.8,30.24,NNW,337,0.0,6.0,58,0.00,,,0.01,VWS V14.01,2013-01-02 20:10:00,
2013-01-02 15:16:00,33.1,19.5,30.24,NE,45,0.0,6.0,57,0.00,,,0.01,VWS V14.01,2013-01-02 20:16:00,
2013-01-02 15:21:00,33.2,19.6,30.24,ENE,57,1.0,6.0,57,0.00,,,0.01,VWS V14.01,2013-01-02 20:21:00,
2013-01-02 15:26:00,33.4,20.2,30.24,ENE,74,0.0,6.0,58,0.00,,,0.01,VWS V14.01,2013-01-02 20:26:00,
2013-01-02 15:31:00,33.8,20.6,30.24,ENE,71,0.0,6.0,58,0.00,,,0.01,VWS V14.01,2013-01-02 20:31:00,
2013-01-02 15:36:00,34.0,20.0,30.24,WNW,293,1.0,6.0,56,0.00,,,0.01,VWS V14.01,2013-01-02 20:36:00,
2013-01-02 15:41:00,33.7,19.7,30.24,WNW,284,0.0,6.0,56,0.00,,,0.01,VWS V14.01,2013-01-02 20:41:00,
2013-01-02 15:46:00,33.4,20.2,30.24,NNW,331,0.0,6.0,58,0.00,,,0.01,VWS V14.01,2013-01-02 20:46:00,
2013-01-02 15:51:00,33.4,21.0,30.24,West,279,0.0,6.0,60,0.00,,,0.01,VWS V14.01,2013-01-02 20:51:00,
2013-01-02 15:56:00,33.2,21.2,30.24,WNW,302,2.0,6.0,61,0.00,,,0.01,VWS V14.01,2013-01-02 20:56:00,
2013-01-02 16:01:00,33.1,20.7,30.24,NW,306,0.0,6.0,60,0.00,,,0.01,VWS V14.01,2013-01-02 21:01:00,
2013-01-02 16:06:00,32.8,20.5,30.24,WNW,286,2.0,6.0,60,0.00,,,0.01,VWS V14.01,2013-01-02 21:06:00,
2013-01-02 16:11:00,32.5,20.6,30.24,WNW,282,3.0,6.0,61,0.00,,,0.01,VWS V14.01,2013-01-02 21:11:00,
2013-01-02 16:16:00,32.4,20.9,30.24,WNW,293,1.0,6.0,62,0.00,,,0.01,VWS V14.01,2013-01-02 21:16:00,
2013-01-02 16:21:00,32.4,20.5,30.24,NW,311,2.0,6.0,61,0.00,,,0.01,VWS V14.01,2013-01-02 21:21:00,
2013-01-02 16:26:00,32.2,20.3,30.24,NNW,338,0.0,6.0,61,0.00,,,0.01,VWS V14.01,2013-01-02 21:26:00,
2013-01-02 16:31:00,32.1,20.2,30.24,WNW,290,2.0,6.0,61,0.00,,,0.01,VWS V14.01,2013-01-02 21:31:00,
2013-01-02 16:36:00,31.9,20.0,30.24,WNW,284,1.0,6.0,61,0.00,,,0.01,VWS V14.01,2013-01-02 21:36:00,
2013-01-02 16:41:00,31.8,20.3,30.24,WNW,284,0.0,6.0,62,0.00,,,0.01,VWS V14.01,2013-01-02 21:41:00,
2013-01-02 16:46:00,31.6,20.1,30.24,WNW,288,1.0,6.0,62,0.00,,,0.01,VWS V14.01,2013-01-02 21:46:00,
2013-01-02 16:51:00,31.6,20.1,30.23,WNW,291,1.0,6.0,62,0.00,,,0.01,VWS V14.01,2013-01-02 21:51:00,
2013-01-02 16:56:00,31.5,20.0,30.23,NW,307,0.0,6.0,62,0.00,,,0.01,VWS V14.01,2013-01-02 21:56:00,
2013-01-02 17:01:00,31.3,19.8,30.23,NW,306,2.0,6.0,62,0.00,,,0.01,VWS V14.01,2013-01-02 22:01:00,
2013-01-02 17:06:00,31.2,20.1,30.24,WNW,290,0.0,6.0,63,0.00,,,0.01,VWS V14.01,2013-01-02 22:06:00,
2013-01-02 17:11:00,31.2,20.1,30.24,WNW,301,0.0,6.0,63,0.00,,,0.01,VWS V14.01,2013-01-02 22:11:00,
2013-01-02 17:16:00,31.0,19.9,30.24,WNW,292,2.0,6.0,63,0.00,,,0.01,VWS V14.01,2013-01-02 22:16:00,
2013-01-02 17:21:00,30.9,19.8,30.24,WNW,288,1.0,6.0,63,0.00,,,0.01,VWS V14.01,2013-01-02 22:21:00,
2013-01-02 17:26:00,30.7,19.6,30.24,WNW,296,0.0,6.0,63,0.00,,,0.01,VWS V14.01,2013-01-02 22:26:00,
2013-01-02 17:31:00,30.6,19.9,30.24,NW,318,0.0,6.0,64,0.00,,,0.01,VWS V14.01,2013-01-02 22:31:00,
2013-01-02 17:36:00,30.4,19.7,30.24,NW,307,0.0,6.0,64,0.00,,,0.01,VWS V14.01,2013-01-02 22:36:00,
2013-01-02 17:41:00,30.4,19.7,30.24,NW,309,0.0,6.0,64,0.00,,,0.01,VWS V14.01,2013-01-02 22:41:00,
2013-01-02 17:46:00,30.3,20.0,30.24,NW,311,0.0,6.0,65,0.00,,,0.01,VWS V14.01,2013-01-02 22:46:00,
2013-01-02 17:51:00,30.1,19.8,30.25,NW,312,0.0,6.0,65,0.00,,,0.01,VWS V14.01,2013-01-02 22:51:00,
2013-01-02 17:56:00,30.0,20.0,30.25,NW,310,0.0,6.0,66,0.00,,,0.01,VWS V14.01,2013-01-02 22:56:00,
2013-01-02 18:01:00,30.0,20.0,30.25,NNW,328,0.0,6.0,66,0.00,,,0.01,VWS V14.01,2013-01-02 23:01:00,
2013-01-02 18:06:00,29.8,19.8,30.25,NNW,328,0.0,6.0,66,0.00,,,0.01,VWS V14.01,2013-01-02 23:06:00,
2013-01-02 18:11:00,29.8,19.8,30.25,NW,313,0.0,6.0,66,0.00,,,0.01,VWS V14.01,2013-01-02 23:11:00,
2013-01-02 18:16:00,29.8,19.8,30.25,NNW,348,0.0,6.0,66,0.00,,,0.01,VWS V14.01,2013-01-02 23:16:00,
2013-01-02 18:21:00,29.8,19.5,30.26,NNW,327,0.0,6.0,65,0.00,,,0.01,VWS V14.01,2013-01-02 23:21:00,
2013-01-02 18:26:00,29.8,19.5,30.26,NNW,327,0.0,6.0,65,0.00,,,0.01,VWS V14.01,2013-01-02 23:26:00,
2013-01-02 18:31:00,29.7,19.8,30.26,NNW,327,0.0,6.0,66,0.00,,,0.01,VWS V14.01,2013-01-02 23:31:00,
2013-01-02 18:36:00,29.7,19.8,30.26,NNW,327,0.0,6.0,66,0.00,,,0.01,VWS V14.01,2013-01-02 23:36:00,
2013-01-02 18:41:00,29.7,20.1,30.26,NNW,327,0.0,6.0,67,0.00,,,0.01,VWS V14.01,2013-01-02 23:41:00,
2013-01-02 18:46:00,29.5,20.3,30.26,NNW,327,0.0,6.0,68,0.00,,,0.01,VWS V14.01,2013-01-02 23:46:00,
2013-01-02 18:51:00,29.4,20.2,30.27,NNW,327,0.0,6.0,68,0.00,,,0.01,VWS V14.01,2013-01-02 23:51:00,
2013-01-02 18:56:00,29.4,20.2,30.27,NNW,327,0.0,6.0,68,0.00,,,0.01,VWS V14.01,2013-01-02 23:56:00,
2013-01-02 19:01:00,29.3,20.1,30.27,NNW,327,0.0,6.0,68,0.00,,,0.01,VWS V14.01,2013-01-03 00:01:00,
2013-01-02 19:06:00,29.3,20.1,30.27,NNW,327,0.0,6.0,68,0.00,,,0.01,VWS V14.01,2013-01-03 00:06:00,
2013-01-02 19:11:00,29.1,19.9,30.27,NNW,327,0.0,6.0,68,0.00,,,0.01,VWS V14.01,2013-01-03 00:11:00,
2013-01-02 19:16:00,29.0,19.8,30.27,NNW,327,0.0,6.0,68,0.00,,,0.01,VWS V14.01,2013-01-03 00:16:00,
2013-01-02 19:21:00,28.8,19.6,30.27,NNW,327,0.0,6.0,68,0.00,,,0.01,VWS V14.01,2013-01-03 00:21:00,
2013-01-02 19:26:00,28.8,19.6,30.27,NNW,327,0.0,6.0,68,0.00,,,0.01,VWS V14.01,2013-01-03 00:26:00,
2013-01-02 19:31:00,28.7,19.8,30.27,NNW,327,0.0,6.0,69,0.00,,,0.01,VWS V14.01,2013-01-03 00:31:00,
2013-01-02 19:36:00,28.7,19.8,30.27,NNW,327,0.0,6.0,69,0.00,,,0.01,VWS V14.01,2013-01-03 00:36:00,
2013-01-02 19:41:00,28.7,20.2,30.27,NNW,327,0.0,6.0,70,0.00,,,0.01,VWS V14.01,2013-01-03 00:41:00,
2013-01-02 19:47:00,28.7,20.8,30.27,NNW,327,0.0,6.0,72,0.00,,,0.01,VWS V14.01,2013-01-03 00:47:00,
2013-01-02 19:52:00,28.7,20.8,30.28,NNW,327,0.0,6.0,72,0.00,,,0.01,VWS V14.01,2013-01-03 00:52:00,
2013-01-02 19:57:00,28.5,20.3,30.28,NNW,327,0.0,6.0,71,0.00,,,0.01,VWS V14.01,2013-01-03 00:57:00,
2013-01-02 20:02:00,28.4,20.2,30.28,NNW,327,0.0,6.0,71,0.00,,,0.01,VWS V14.01,2013-01-03 01:02:00,
2013-01-02 20:07:00,28.2,20.0,30.28,NNW,327,0.0,6.0,71,0.00,,,0.01,VWS V14.01,2013-01-03 01:07:00,
2013-01-02 20:12:00,28.1,19.9,30.28,NNW,327,0.0,6.0,71,0.00,,,0.01,VWS V14.01,2013-01-03 01:12:00,
2013-01-02 20:17:00,28.1,19.9,30.28,NNW,327,0.0,6.0,71,0.00,,,0.01,VWS V14.01,2013-01-03 01:17:00,
2013-01-02 20:22:00,28.1,19.9,30.29,NNW,327,0.0,6.0,71,0.00,,,0.01,VWS V14.01,2013-01-03 01:22:00,
2013-01-02 20:27:00,28.1,19.9,30.29,NNW,327,0.0,6.0,71,0.00,,,0.01,VWS V14.01,2013-01-03 01:27:00,
2013-01-02 20:32:00,28.1,19.9,30.29,NNW,327,0.0,6.0,71,0.00,,,0.01,VWS V14.01,2013-01-03 01:32:00,
2013-01-02 20:37:00,28.1,20.2,30.28,NNW,327,0.0,6.0,72,0.00,,,0.01,VWS V14.01,2013-01-03 01:37:00,
2013-01-02 20:42:00,28.2,21.0,30.28,NNW,327,0.0,6.0,74,0.00,,,0.01,VWS V14.01,2013-01-03 01:42:00,
2013-01-02 20:47:00,28.4,21.5,30.28,NNW,327,0.0,6.0,75,0.00,,,0.01,VWS V14.01,2013-01-03 01:47:00,
2013-01-02 20:52:00,28.5,21.6,30.28,NNW,327,0.0,6.0,75,0.00,,,0.01,VWS V14.01,2013-01-03 01:52:00,
2013-01-02 20:57:00,28.7,21.8,30.28,NNW,327,0.0,6.0,75,0.00,,,0.01,VWS V14.01,2013-01-03 01:57:00,
2013-01-02 21:02:00,28.7,22.1,30.28,NNW,327,0.0,6.0,76,0.00,,,0.01,VWS V14.01,2013-01-03 02:02:00,
2013-01-02 21:07:00,28.7,21.8,30.28,NNW,327,0.0,6.0,75,0.00,,,0.01,VWS V14.01,2013-01-03 02:07:00,
2013-01-02 21:12:00,28.7,21.8,30.28,NNW,327,0.0,6.0,75,0.00,,,0.01,VWS V14.01,2013-01-03 02:12:00,
2013-01-02 21:17:00,28.7,21.8,30.28,NNW,327,0.0,6.0,75,0.00,,,0.01,VWS V14.01,2013-01-03 02:17:00,
2013-01-02 21:22:00,28.7,21.8,30.28,NNW,327,0.0,6.0,75,0.00,,,0.01,VWS V14.01,2013-01-03 02:22:00,
2013-01-02 21:27:00,28.5,21.3,30.28,NNW,327,0.0,6.0,74,0.00,,,0.01,VWS V14.01,2013-01-03 02:27:00,
2013-01-02 21:32:00,28.4,20.9,30.28,NNW,327,0.0,6.0,73,0.00,,,0.01,VWS V14.01,2013-01-03 02:32:00,
2013-01-02 21:37:00,28.4,21.2,30.28,NNW,327,0.0,6.0,74,0.00,,,0.01,VWS V14.01,2013-01-03 02:37:00,
2013-01-02 21:42:00,28.4,21.2,30.28,NNW,327,0.0,6.0,74,0.00,,,0.01,VWS V14.01,2013-01-03 02:42:00,
2013-01-02 21:47:00,28.4,20.9,30.28,NNW,327,0.0,6.0,73,0.00,,,0.01,VWS V14.01,2013-01-03 02:47:00,
2013-01-02 21:52:00,28.4,20.9,30.29,NNW,327,0.0,6.0,73,0.00,,,0.01,VWS V14.01,2013-01-03 02:52:00,
2013-01-02 21:57:00,28.4,20.9,30.29,NNW,327,0.0,6.0,73,0.00,,,0.01,VWS V14.01,2013-01-03 02:57:00,
2013-01-02 22:02:00,28.2,20.4,30.29,NNW,327,0.0,6.0,72,0.00,,,0.01,VWS V14.01,2013-01-03 03:02:00,
2013-01-02 22:07:00,28.1,20.2,30.29,NNW,327,0.0,6.0,72,0.00,,,0.01,VWS V14.01,2013-01-03 03:07:00,
2013-01-02 22:12:00,28.1,20.2,30.29,NNW,327,0.0,6.0,72,0.00,,,0.01,VWS V14.01,2013-01-03 03:12:00,
2013-01-02 22:17:00,27.9,20.1,30.29,NNW,327,0.0,6.0,72,0.00,,,0.01,VWS V14.01,2013-01-03 03:17:00,
2013-01-02 22:22:00,27.8,20.3,30.29,NNW,327,0.0,6.0,73,0.00,,,0.01,VWS V14.01,2013-01-03 03:22:00,
2013-01-02 22:27:00,27.6,19.8,30.29,NNW,327,0.0,6.0,72,0.00,,,0.01,VWS V14.01,2013-01-03 03:27:00,
2013-01-02 22:32:00,27.6,19.8,30.29,NNW,327,0.0,6.0,72,0.00,,,0.01,VWS V14.01,2013-01-03 03:32:00,
2013-01-02 22:37:00,27.5,19.7,30.28,NNW,327,0.0,6.0,72,0.00,,,0.01,VWS V14.01,2013-01-03 03:37:00,
2013-01-02 22:42:00,27.5,20.3,30.28,NNW,327,0.0,6.0,74,0.00,,,0.01,VWS V14.01,2013-01-03 03:42:00,
2013-01-02 22:47:00,27.5,20.3,30.28,NNW,327,0.0,6.0,74,0.00,,,0.01,VWS V14.01,2013-01-03 03:47:00,
2013-01-02 22:52:00,27.3,19.8,30.28,NNW,327,0.0,6.0,73,0.00,,,0.01,VWS V14.01,2013-01-03 03:52:00,
2013-01-02 22:57:00,27.2,20.0,30.28,NNW,327,0.0,6.0,74,0.00,,,0.01,VWS V14.01,2013-01-03 03:57:00,
2013-01-02 22:58:00,26.6,21.0,30.28,NNW,327,0.0,6.0,79,0.00,,,0.01,VWS V14.01,2013-01-03 03:58:00,
2013-01-02 23:00:00,26.6,21.0,30.28,NNW,327,0.0,6.0,79,0.00,,,0.00,VWS V14.01,2013-01-03 04:00:00,
2013-01-02 23:02:00,27.0,19.8,30.28,NNW,327,0.0,6.0,74,0.00,,,0.01,VWS V14.01,2013-01-03 04:02:00,
2013-01-02 23:03:00,26.6,21.0,30.28,NNW,327,0.0,6.0,79,0.00,,,0.00,VWS V14.01,2013-01-03 04:03:00,
2013-01-02 23:07:00,26.9,19.7,30.28,NNW,327,0.0,6.0,74,0.00,,,0.01,VWS V14.01,2013-01-03 04:07:00,
2013-01-02 23:08:00,26.6,21.0,30.28,NNW,327,0.0,6.0,79,0.00,,,0.00,VWS V14.01,2013-01-03 04:08:00,
2013-01-02 23:10:00,26.4,20.8,30.28,NNW,327,0.0,6.0,79,0.00,,,0.00,VWS V14.01,2013-01-03 04:10:00,
2013-01-02 23:12:00,26.9,20.0,30.28,NNW,327,0.0,6.0,75,0.00,,,0.01,VWS V14.01,2013-01-03 04:12:00,
2013-01-02 23:13:00,26.4,20.8,30.28,NNW,327,0.0,6.0,79,0.00,,,0.00,VWS V14.01,2013-01-03 04:13:00,
2013-01-02 23:18:00,26.9,20.4,30.28,NNW,327,0.0,6.0,76,0.00,,,0.01,VWS V14.01,2013-01-03 04:18:00,
2013-01-02 23:20:00,26.4,21.1,30.28,NNW,327,0.0,6.0,80,0.00,,,0.00,VWS V14.01,2013-01-03 04:20:00,
2013-01-02 23:23:00,26.7,20.2,30.28,NNW,327,0.0,6.0,76,0.00,,,0.01,VWS V14.01,2013-01-03 04:23:00,
2013-01-02 23:28:00,26.7,20.2,30.28,NNW,327,0.0,6.0,76,0.00,,,0.01,VWS V14.01,2013-01-03 04:28:00,
2013-01-02 23:30:00,26.7,21.7,30.28,NNW,327,0.0,6.0,81,0.00,,,0.00,VWS V14.01,2013-01-03 04:30:00,
2013-01-02 23:33:00,26.6,20.4,30.28,NNW,327,0.0,6.0,77,0.00,,,0.01,VWS V14.01,2013-01-03 04:33:00,
2013-01-02 23:38:00,26.7,20.8,30.28,NNW,327,0.0,6.0,78,0.00,,,0.01,VWS V14.01,2013-01-03 04:38:00,
2013-01-02 23:40:00,26.9,21.9,30.28,NNW,327,0.0,6.0,81,0.00,,,0.00,VWS V14.01,2013-01-03 04:40:00,
2013-01-02 23:43:00,26.7,20.5,30.28,NNW,327,0.0,6.0,77,0.00,,,0.01,VWS V14.01,2013-01-03 04:43:00,
2013-01-02 23:48:00,26.6,20.7,30.28,NNW,327,0.0,6.0,78,0.00,,,0.01,VWS V14.01,2013-01-03 04:48:00,
2013-01-02 23:50:00,26.9,21.9,30.28,NNW,327,0.0,6.0,81,0.00,,,0.00,VWS V14.01,2013-01-03 04:50:00,
2013-01-02 23:53:00,26.6,20.7,30.28,NNW,327,0.0,6.0,78,0.00,,,0.01,VWS V14.01,2013-01-03 04:53:00,
2013-01-02 23:58:00,26.6,21.0,30.28,NNW,327,0.0,6.0,79,0.00,,,0.01,VWS V14.01,2013-01-03 04:58:00,